Time;durP1;ratioP1;P1;durP2;ratioP2;P2;SDS_P1;SDS_P2;PMS_P1;PMS_P2;Temp;Humidity;BMP_temperature;BMP_pressure;BME280_temperature;BME280_humidity;BME280_pressure;Samples;Min_cycle;Max_cycle;Signal;HPM_P1;HPM_P2
2022/03/04 00:00:14;;;;;;;31.40;15.07;;;-2.40;99.90;;;;;;5013773;28;20022;-77
2022/03/04 00:02:39;;;;;;;30.00;15.27;;;-2.40;99.90;;;;;;5013926;28;20032;-77
2022/03/04 00:05:05;;;;;;;27.60;14.10;;;-2.50;99.90;;;;;;5013357;28;20380;-77
2022/03/04 00:07:31;;;;;;;27.40;14.40;;;-2.50;99.90;;;;;;4996434;28;20044;-77
2022/03/04 00:09:56;;;;;;;28.00;13.67;;;-2.50;99.90;;;;;;5014270;28;20037;-77
2022/03/04 00:12:22;;;;;;;27.57;14.70;;;-2.50;99.90;;;;;;5013288;28;20030;-77
2022/03/04 00:14:48;;;;;;;26.60;14.67;;;-2.50;99.90;;;;;;5014093;28;20096;-77
2022/03/04 00:17:13;;;;;;;28.90;14.87;;;-2.50;99.90;;;;;;4995066;28;20050;-77
2022/03/04 00:19:39;;;;;;;29.27;15.87;;;-2.60;99.90;;;;;;5013503;28;20483;-77
2022/03/04 00:22:05;;;;;;;29.00;14.83;;;-2.60;99.90;;;;;;5013032;28;20025;-77
2022/03/04 00:24:31;;;;;;;30.20;14.77;;;-2.60;99.90;;;;;;4995015;28;20022;-77
2022/03/04 00:26:57;;;;;;;31.47;14.30;;;-2.60;99.90;;;;;;5013087;28;20034;-77
2022/03/04 00:29:23;;;;;;;40.77;16.57;;;-2.60;99.90;;;;;;4995180;28;20059;-77
2022/03/04 00:31:48;;;;;;;28.00;13.90;;;-2.70;99.90;;;;;;5013025;28;20053;-77
2022/03/04 00:34:14;;;;;;;31.63;14.83;;;-2.70;99.90;;;;;;5013087;28;20037;-77
2022/03/04 00:36:41;;;;;;;31.33;15.57;;;-2.70;99.90;;;;;;5013034;28;20032;-77
2022/03/04 00:39:11;;;;;;;28.67;14.90;;;-2.70;99.90;;;;;;5013445;28;20116;-77
2022/03/04 00:41:37;;;;;;;38.00;15.57;;;-2.80;99.90;;;;;;5012658;28;20172;-77
2022/03/04 00:44:04;;;;;;;27.17;15.10;;;-2.80;99.90;;;;;;5012973;28;20105;-77
2022/03/04 00:46:29;;;;;;;28.77;15.33;;;-2.80;99.90;;;;;;5013335;28;20493;-77
2022/03/04 00:48:55;;;;;;;37.30;16.13;;;-2.80;99.90;;;;;;5013796;28;20029;-77
2022/03/04 00:51:20;;;;;;;29.83;15.57;;;-2.80;99.90;;;;;;5013833;28;20076;-77
2022/03/04 00:53:46;;;;;;;31.57;15.70;;;-2.80;99.90;;;;;;5014008;28;20126;-77
2022/03/04 00:56:13;;;;;;;31.33;15.53;;;-2.80;99.90;;;;;;5014417;28;20387;-77
2022/03/04 00:58:40;;;;;;;29.87;16.37;;;-2.80;99.90;;;;;;5013321;28;20022;-77
2022/03/04 01:01:06;;;;;;;27.67;15.27;;;-2.80;99.90;;;;;;4995822;28;20076;-76
2022/03/04 01:03:33;;;;;;;31.70;16.13;;;-2.80;99.90;;;;;;5010682;28;20103;-76
2022/03/04 01:06:00;;;;;;;29.87;15.77;;;-2.80;99.90;;;;;;4993065;28;20033;-76
2022/03/04 01:08:26;;;;;;;30.10;15.70;;;-2.80;99.90;;;;;;5011148;28;20760;-76
2022/03/04 01:10:51;;;;;;;30.77;16.63;;;-2.80;99.90;;;;;;5011015;28;20115;-76
2022/03/04 01:13:17;;;;;;;32.93;16.83;;;-2.80;99.90;;;;;;5011354;28;20021;-76
2022/03/04 01:15:44;;;;;;;31.83;16.27;;;-2.90;99.90;;;;;;5010568;28;20105;-76
2022/03/04 01:18:10;;;;;;;32.03;16.30;;;-2.90;99.90;;;;;;5010190;28;20371;-76
2022/03/04 01:20:36;;;;;;;31.83;16.90;;;-2.90;99.90;;;;;;5010836;28;20026;-76
2022/03/04 01:23:02;;;;;;;31.90;16.93;;;-2.90;99.90;;;;;;5010688;28;20105;-76
2022/03/04 01:25:28;;;;;;;36.07;16.60;;;-2.90;99.90;;;;;;5010566;28;20121;-76
2022/03/04 01:27:54;;;;;;;35.13;16.80;;;-2.90;99.90;;;;;;5012711;28;20033;-77
2022/03/04 01:30:20;;;;;;;29.17;17.13;;;-2.90;99.90;;;;;;4994878;28;20367;-77
2022/03/04 01:32:45;;;;;;;37.13;16.90;;;-2.90;99.90;;;;;;5012875;28;20120;-77
2022/03/04 01:35:12;;;;;;;34.13;16.33;;;-3.00;99.90;;;;;;5012511;28;20033;-77
2022/03/04 01:37:39;;;;;;;36.70;16.93;;;-3.00;99.90;;;;;;5012129;28;20049;-77
2022/03/04 01:40:06;;;;;;;33.87;16.90;;;-3.00;99.90;;;;;;4994249;28;20033;-77
2022/03/04 01:42:34;;;;;;;36.13;16.97;;;-3.00;99.90;;;;;;5012545;28;20092;-77
2022/03/04 01:45:00;;;;;;;33.70;17.37;;;-3.00;99.90;;;;;;5012439;28;20026;-77
2022/03/04 01:47:26;;;;;;;32.20;17.23;;;-3.00;99.90;;;;;;5013025;28;20029;-77
2022/03/04 01:49:53;;;;;;;29.83;15.33;;;-3.10;99.90;;;;;;5011554;28;20105;-76
2022/03/04 01:52:19;;;;;;;34.93;17.73;;;-3.10;99.90;;;;;;5010441;28;20030;-76
2022/03/04 01:54:44;;;;;;;31.30;16.30;;;-3.10;99.90;;;;;;5010775;28;20026;-75
2022/03/04 01:57:10;;;;;;;32.93;17.30;;;-3.10;99.90;;;;;;4992483;28;20029;-76
2022/03/04 01:59:36;;;;;;;28.73;15.60;;;-3.10;99.90;;;;;;5010615;28;20129;-76
2022/03/04 02:02:01;;;;;;;32.47;16.67;;;-3.10;99.90;;;;;;5010844;28;20080;-75
2022/03/04 02:04:27;;;;;;;37.43;16.83;;;-3.10;99.90;;;;;;5010523;28;20467;-76
2022/03/04 02:06:53;;;;;;;34.90;17.43;;;-3.10;99.90;;;;;;5010811;28;20037;-76
2022/03/04 02:09:20;;;;;;;35.23;17.33;;;-3.20;99.90;;;;;;5010547;28;20501;-76
2022/03/04 02:11:45;;;;;;;35.23;17.00;;;-3.20;99.90;;;;;;5011977;28;20038;-77
2022/03/04 02:14:12;;;;;;;36.93;17.40;;;-3.20;99.90;;;;;;5013838;28;20030;-77
2022/03/04 02:16:45;;;;;;;32.37;17.60;;;-3.20;99.90;;;;;;5013380;28;20394;-77
2022/03/04 02:19:11;;;;;;;35.53;18.83;;;-3.20;99.90;;;;;;4995895;28;20065;-77
2022/03/04 02:21:51;;;;;;;31.80;16.50;;;-3.20;99.90;;;;;;5013884;28;20045;-77
2022/03/04 02:24:17;;;;;;;35.87;17.87;;;-3.30;99.90;;;;;;5014016;28;20407;-77
2022/03/04 02:26:44;;;;;;;31.87;16.13;;;-3.30;99.90;;;;;;5014019;28;20061;-77
2022/03/04 02:29:10;;;;;;;33.43;17.23;;;-3.30;99.90;;;;;;5013542;28;20065;-77
2022/03/04 02:31:36;;;;;;;32.23;16.37;;;-3.30;99.90;;;;;;5013367;28;20041;-77
2022/03/04 02:34:02;;;;;;;38.43;16.63;;;-3.40;99.90;;;;;;4995960;28;20026;-77
2022/03/04 02:36:28;;;;;;;33.33;16.93;;;-3.40;99.90;;;;;;5012573;28;20034;-77
2022/03/04 02:38:53;;;;;;;32.70;17.00;;;-3.50;99.90;;;;;;5013350;28;20033;-77
2022/03/04 02:41:19;;;;;;;30.17;16.00;;;-3.50;99.90;;;;;;5013309;28;20022;-77
2022/03/04 02:43:44;;;;;;;30.67;17.27;;;-3.50;99.90;;;;;;5013337;28;20133;-77
2022/03/04 02:46:10;;;;;;;34.57;17.30;;;-3.50;99.90;;;;;;5013388;28;20096;-77
2022/03/04 02:48:36;;;;;;;33.07;17.30;;;-3.50;99.90;;;;;;4997481;28;20034;-77
2022/03/04 02:51:01;;;;;;;33.43;17.53;;;-3.50;99.90;;;;;;4998894;28;20359;-77
2022/03/04 02:53:27;;;;;;;35.53;16.77;;;-3.50;99.90;;;;;;5016446;28;20026;-77
2022/03/04 02:55:52;;;;;;;37.67;18.43;;;-3.50;99.90;;;;;;5016525;28;20028;-76
2022/03/04 02:58:18;;;;;;;33.07;16.63;;;-3.50;99.90;;;;;;4999533;28;20719;-77
2022/03/04 03:00:43;;;;;;;32.07;18.23;;;-3.50;99.90;;;;;;5013901;28;20034;-76
2022/03/04 03:03:09;;;;;;;35.37;18.03;;;-3.60;99.90;;;;;;4997569;28;20376;-77
2022/03/04 03:05:35;;;;;;;34.80;18.73;;;-3.60;99.90;;;;;;4980107;28;20466;-76
2022/03/04 03:08:00;;;;;;;32.37;17.03;;;-3.60;99.90;;;;;;4981066;28;20463;-76
2022/03/04 03:10:26;;;;;;;38.30;18.77;;;-3.70;99.90;;;;;;4995808;28;20053;-76
2022/03/04 03:12:51;;;;;;;36.67;18.93;;;-3.70;99.90;;;;;;4994178;28;20022;-76
2022/03/04 03:15:17;;;;;;;34.70;18.00;;;-3.70;99.90;;;;;;5002011;28;20049;-76
2022/03/04 03:17:43;;;;;;;35.17;18.43;;;-3.70;99.90;;;;;;4995413;28;20181;-76
2022/03/04 03:20:09;;;;;;;34.77;18.40;;;-3.70;99.90;;;;;;5013580;28;20025;-76
2022/03/04 03:22:35;;;;;;;37.03;19.33;;;-3.70;99.90;;;;;;5013469;28;20026;-76
2022/03/04 03:25:00;;;;;;;36.90;19.23;;;-3.80;99.90;;;;;;5013194;28;20034;-76
2022/03/04 03:27:26;;;;;;;38.93;19.63;;;-3.80;99.90;;;;;;5013092;28;20026;-76
2022/03/04 03:29:51;;;;;;;42.87;19.70;;;-3.80;99.90;;;;;;5012942;28;20121;-76
2022/03/04 03:32:17;;;;;;;37.53;19.53;;;-3.80;99.90;;;;;;4994123;28;20136;-76
2022/03/04 03:34:43;;;;;;;35.70;18.67;;;-3.80;99.90;;;;;;5010802;28;20084;-77
2022/03/04 03:37:09;;;;;;;49.33;19.80;;;-3.80;99.90;;;;;;4979585;28;20038;-74
2022/03/04 03:39:37;;;;;;;38.27;18.67;;;-3.80;99.90;;;;;;4995471;28;20026;-74
2022/03/04 03:42:05;;;;;;;41.80;19.63;;;-3.80;99.90;;;;;;4995455;28;20105;-75
2022/03/04 03:44:31;;;;;;;37.03;18.70;;;-3.80;99.90;;;;;;4995723;28;20132;-74
2022/03/04 03:46:57;;;;;;;33.50;19.13;;;-3.90;99.90;;;;;;4995541;28;20471;-74
2022/03/04 03:49:23;;;;;;;34.37;18.13;;;-3.80;99.90;;;;;;4995583;28;20027;-74
2022/03/04 03:51:49;;;;;;;39.47;19.70;;;-3.90;99.90;;;;;;4995448;28;20053;-73
2022/03/04 03:54:16;;;;;;;44.37;19.77;;;-3.90;99.90;;;;;;4995646;28;20030;-73
2022/03/04 03:56:42;;;;;;;41.00;19.03;;;-3.90;99.90;;;;;;5004418;28;20466;-78
2022/03/04 03:59:08;;;;;;;39.47;19.57;;;-4.00;99.90;;;;;;4995950;28;20061;-76
2022/03/04 04:01:33;;;;;;;43.40;20.57;;;-4.00;99.90;;;;;;5012519;28;20054;-75
2022/03/04 04:03:59;;;;;;;38.33;19.27;;;-4.00;99.90;;;;;;4994176;28;20034;-75
2022/03/04 04:06:25;;;;;;;34.93;19.30;;;-4.00;99.90;;;;;;5014863;28;20439;-72
2022/03/04 04:08:51;;;;;;;37.00;19.30;;;-4.00;99.90;;;;;;5014496;28;20026;-72
2022/03/04 04:11:16;;;;;;;33.27;17.57;;;-4.10;99.90;;;;;;5014359;28;20532;-72
2022/03/04 04:13:42;;;;;;;36.53;18.40;;;-4.10;99.90;;;;;;5014468;28;20339;-72
2022/03/04 04:16:08;;;;;;;36.00;18.17;;;-4.10;99.90;;;;;;5014212;28;20049;-72
2022/03/04 04:18:33;;;;;;;37.63;20.40;;;-4.20;99.90;;;;;;5014407;28;20029;-72
2022/03/04 04:20:59;;;;;;;41.67;20.50;;;-4.20;99.90;;;;;;5014453;28;20026;-72
2022/03/04 04:23:25;;;;;;;44.73;21.37;;;-4.20;99.90;;;;;;5014212;28;20029;-72
2022/03/04 04:25:50;;;;;;;39.47;19.53;;;-4.20;99.90;;;;;;4996438;28;20024;-71
2022/03/04 04:28:16;;;;;;;38.17;19.33;;;-4.30;99.90;;;;;;4996446;28;20026;-72
2022/03/04 04:30:41;;;;;;;41.77;19.43;;;-4.30;99.90;;;;;;5014048;28;20037;-72
2022/03/04 04:33:07;;;;;;;41.20;18.83;;;-4.30;99.90;;;;;;5014079;28;20387;-72
2022/03/04 04:35:32;;;;;;;39.03;19.53;;;-4.30;99.90;;;;;;5014197;28;20111;-73
2022/03/04 04:37:58;;;;;;;37.87;19.83;;;-4.30;99.90;;;;;;5014126;28;20026;-72
2022/03/04 04:40:24;;;;;;;39.70;19.40;;;-4.40;99.90;;;;;;5014335;28;20021;-72
2022/03/04 04:42:49;;;;;;;40.57;19.43;;;-4.40;99.90;;;;;;5014040;28;20058;-72
2022/03/04 04:45:15;;;;;;;39.07;19.97;;;-4.30;99.90;;;;;;5013940;28;20033;-73
2022/03/04 04:47:41;;;;;;;36.93;19.60;;;-4.40;99.90;;;;;;4996221;28;20030;-72
2022/03/04 04:50:07;;;;;;;43.73;21.10;;;-4.40;99.90;;;;;;5013712;28;20041;-72
2022/03/04 04:52:33;;;;;;;41.53;20.80;;;-4.40;99.90;;;;;;5013643;28;20041;-72
2022/03/04 04:54:58;;;;;;;41.77;20.17;;;-4.40;99.90;;;;;;4996012;28;20030;-72
2022/03/04 04:57:24;;;;;;;42.43;19.23;;;-4.40;99.90;;;;;;5014056;28;20371;-72
2022/03/04 04:59:50;;;;;;;40.63;20.43;;;-4.40;99.90;;;;;;5013536;28;20018;-72
2022/03/04 05:02:15;;;;;;;42.90;19.50;;;-4.40;99.90;;;;;;5013687;28;20029;-72
2022/03/04 05:04:41;;;;;;;39.47;19.50;;;-4.50;99.90;;;;;;5013482;28;20028;-72
2022/03/04 05:07:06;;;;;;;38.53;19.47;;;-4.50;99.90;;;;;;5013372;28;20475;-72
2022/03/04 05:09:32;;;;;;;39.67;19.07;;;-4.50;99.90;;;;;;5013472;28;20034;-72
2022/03/04 05:11:58;;;;;;;43.40;20.83;;;-4.50;99.90;;;;;;5012825;28;20102;-72
2022/03/04 05:14:23;;;;;;;41.17;21.33;;;-4.50;99.90;;;;;;5013577;28;20136;-72
2022/03/04 05:16:49;;;;;;;34.90;20.10;;;-4.50;99.90;;;;;;5013224;28;20054;-72
2022/03/04 05:19:14;;;;;;;42.20;19.77;;;-4.50;99.90;;;;;;5013672;28;20026;-72
2022/03/04 05:21:40;;;;;;;43.53;19.53;;;-4.50;99.90;;;;;;5013177;28;20513;-72
2022/03/04 05:24:07;;;;;;;35.17;19.63;;;-4.60;99.90;;;;;;4995680;28;20077;-72
2022/03/04 05:26:39;;;;;;;41.10;20.23;;;-4.60;99.90;;;;;;4995612;28;20037;-72
2022/03/04 05:29:09;;;;;;;40.50;18.93;;;-4.60;99.90;;;;;;5013365;28;20022;-72
2022/03/04 05:31:36;;;;;;;33.37;17.57;;;-4.60;99.90;;;;;;4995380;28;20030;-73
2022/03/04 05:34:02;;;;;;;35.73;20.13;;;-4.60;99.90;;;;;;5013200;28;20056;-72
2022/03/04 05:36:28;;;;;;;45.07;19.13;;;-4.70;99.90;;;;;;4995900;28;20034;-73
2022/03/04 05:38:54;;;;;;;40.27;20.10;;;-4.70;99.90;;;;;;5012877;28;20025;-72
2022/03/04 05:41:19;;;;;;;39.93;19.53;;;-4.70;99.90;;;;;;4995089;28;20026;-73
2022/03/04 05:43:47;;;;;;;39.43;19.60;;;-4.70;99.90;;;;;;5013017;28;20049;-73
2022/03/04 05:46:13;;;;;;;35.03;18.60;;;-4.70;99.90;;;;;;5013101;28;20049;-73
2022/03/04 05:48:39;;;;;;;41.10;19.00;;;-4.70;99.90;;;;;;5012734;28;20510;-73
2022/03/04 05:51:05;;;;;;;43.13;18.93;;;-4.80;99.90;;;;;;5013000;28;20036;-73
2022/03/04 05:53:31;;;;;;;38.90;19.63;;;-4.80;99.90;;;;;;4995011;28;20034;-73
2022/03/04 05:55:57;;;;;;;42.03;18.80;;;-4.80;99.90;;;;;;4995059;28;20026;-73
2022/03/04 05:58:22;;;;;;;43.73;19.27;;;-4.80;99.90;;;;;;5013152;28;20370;-73
2022/03/04 06:00:48;;;;;;;41.37;20.17;;;-4.70;99.90;;;;;;5012748;28;20429;-73
2022/03/04 06:03:14;;;;;;;37.30;18.43;;;-4.70;99.90;;;;;;5012554;28;20026;-73
2022/03/04 06:05:39;;;;;;;38.93;19.20;;;-4.70;99.90;;;;;;4995766;28;20109;-73
2022/03/04 06:08:05;;;;;;;36.50;19.43;;;-4.70;99.90;;;;;;5011851;28;20453;-73
2022/03/04 06:10:31;;;;;;;38.53;18.97;;;-4.70;99.90;;;;;;5012538;28;20034;-72
2022/03/04 06:12:56;;;;;;;36.93;18.07;;;-4.60;99.90;;;;;;5012956;28;20037;-73
2022/03/04 06:15:22;;;;;;;39.33;18.20;;;-4.60;99.90;;;;;;5012691;28;20033;-72
2022/03/04 06:17:51;;;;;;;36.13;17.40;;;-4.60;99.90;;;;;;5012381;28;20053;-73
2022/03/04 06:20:17;;;;;;;34.93;18.80;;;-4.50;99.90;;;;;;5012705;28;20040;-73
2022/03/04 06:22:43;;;;;;;33.97;16.70;;;-4.50;99.90;;;;;;5015248;28;20049;-73
2022/03/04 06:25:10;;;;;;;29.63;16.50;;;-4.40;99.90;;;;;;5016454;28;20455;-73
2022/03/04 06:27:36;;;;;;;32.73;17.53;;;-4.40;99.90;;;;;;5016462;28;20030;-73
2022/03/04 06:30:03;;;;;;;33.57;15.90;;;-4.30;99.90;;;;;;5016407;28;20104;-73
2022/03/04 06:32:28;;;;;;;35.23;17.90;;;-4.20;99.90;;;;;;5016401;28;20089;-73
2022/03/04 06:34:54;;;;;;;50.70;23.90;;;-4.10;99.90;;;;;;5016501;28;20435;-73
2022/03/04 06:37:23;;;;;;;33.03;17.80;;;-4.10;99.90;;;;;;5016601;28;20381;-75
2022/03/04 06:39:48;;;;;;;36.37;18.07;;;-4.00;99.90;;;;;;5015617;28;20386;-74
2022/03/04 06:42:14;;;;;;;35.27;17.80;;;-3.90;99.90;;;;;;5016170;28;20022;-73
2022/03/04 06:44:40;;;;;;;35.97;17.70;;;-3.80;99.90;;;;;;5015759;28;20022;-74
2022/03/04 06:47:07;;;;;;;33.30;17.73;;;-3.70;99.90;;;;;;5013837;28;20038;-73
2022/03/04 06:49:33;;;;;;;33.30;16.83;;;-3.60;99.90;;;;;;5016187;28;20030;-73
2022/03/04 06:51:58;;;;;;;30.13;16.53;;;-3.50;99.90;;;;;;5016206;28;20025;-73
2022/03/04 06:54:24;;;;;;;33.17;18.77;;;-3.40;99.90;;;;;;4998414;28;20096;-73
2022/03/04 06:56:50;;;;;;;32.63;16.77;;;-3.30;99.90;;;;;;5015851;28;20061;-73
2022/03/04 06:59:15;;;;;;;34.17;16.20;;;-3.10;99.90;;;;;;5016019;28;20030;-74
2022/03/04 07:01:42;;;;;;;34.63;16.17;;;-2.90;99.90;;;;;;4997913;28;20029;-73
2022/03/04 07:04:07;;;;;;;31.57;16.97;;;-2.50;99.90;;;;;;5015806;28;20114;-73
2022/03/04 07:06:33;;;;;;;29.70;16.20;;;-2.30;99.90;;;;;;5016723;28;20109;-78
2022/03/04 07:08:58;;;;;;;28.53;15.87;;;-2.00;99.90;;;;;;5016167;28;20057;-78
2022/03/04 07:11:24;;;;;;;30.60;16.87;;;-2.10;99.90;;;;;;5015913;28;20633;-78
2022/03/04 07:13:50;;;;;;;31.33;16.53;;;-2.00;99.90;;;;;;5015935;28;20037;-78
2022/03/04 07:16:15;;;;;;;30.03;15.50;;;-2.00;99.90;;;;;;5015740;28;20134;-78
2022/03/04 07:18:41;;;;;;;31.37;16.33;;;-1.90;99.90;;;;;;4995105;28;20053;-78
2022/03/04 07:21:06;;;;;;;35.80;15.83;;;-1.80;99.90;;;;;;5005422;28;20042;-68
2022/03/04 07:23:32;;;;;;;31.10;17.37;;;-1.70;99.90;;;;;;5015777;28;20030;-78
2022/03/04 07:25:57;;;;;;;34.07;18.20;;;-1.50;99.90;;;;;;5015107;28;20029;-74
2022/03/04 07:28:23;;;;;;;31.97;15.70;;;-1.50;99.90;;;;;;5015301;28;20026;-74
2022/03/04 07:30:49;;;;;;;30.27;15.87;;;-1.20;99.90;;;;;;5015473;28;20022;-74
2022/03/04 07:33:14;;;;;;;31.87;15.73;;;-1.10;99.90;;;;;;4996767;28;20034;-74
2022/03/04 07:35:44;;;;;;;31.70;17.10;;;-0.90;99.90;;;;;;5015056;28;20038;-74
2022/03/04 07:38:14;;;;;;;36.63;17.00;;;-0.90;99.90;;;;;;5015083;28;20037;-73
2022/03/04 07:40:39;;;;;;;30.10;15.63;;;-0.80;99.90;;;;;;5015289;28;20030;-74
2022/03/04 07:43:05;;;;;;;29.60;15.87;;;-0.70;99.90;;;;;;4997572;28;20092;-73
2022/03/04 07:45:31;;;;;;;40.27;16.47;;;-0.70;99.90;;;;;;5015528;28;20336;-74
2022/03/04 07:47:56;;;;;;;29.67;15.93;;;-0.60;99.90;;;;;;4997430;28;20029;-74
2022/03/04 07:50:22;;;;;;;33.63;16.23;;;-0.40;99.90;;;;;;5015069;28;20037;-74
2022/03/04 07:52:47;;;;;;;28.87;15.00;;;-0.20;99.90;;;;;;5015322;28;20034;-74
2022/03/04 07:55:15;;;;;;;35.20;16.70;;;-0.10;99.90;;;;;;5014991;28;20045;-74
2022/03/04 07:57:42;;;;;;;30.13;15.93;;;-0.10;99.90;;;;;;5015087;28;20034;-74
2022/03/04 08:00:10;;;;;;;29.80;15.33;;;0.00;99.90;;;;;;5014819;28;20030;-74
2022/03/04 08:02:36;;;;;;;36.40;17.97;;;0.10;99.90;;;;;;4997300;28;20030;-73
2022/03/04 08:05:02;;;;;;;27.67;14.57;;;0.20;99.90;;;;;;5015074;28;20026;-74
2022/03/04 08:07:28;;;;;;;33.50;16.13;;;0.50;99.90;;;;;;5014743;28;20113;-74
2022/03/04 08:09:53;;;;;;;33.97;15.87;;;0.60;99.90;;;;;;5014689;28;20496;-74
2022/03/04 08:12:20;;;;;;;26.63;14.73;;;0.60;99.90;;;;;;5014614;28;20057;-74
2022/03/04 08:14:46;;;;;;;30.83;15.83;;;0.80;99.90;;;;;;5014525;28;20105;-74
2022/03/04 08:17:12;;;;;;;34.60;15.20;;;0.90;99.90;;;;;;5014788;28;20137;-74
2022/03/04 08:19:39;;;;;;;33.83;16.20;;;0.90;99.90;;;;;;5014547;28;20385;-74
2022/03/04 08:22:05;;;;;;;33.97;16.47;;;1.00;99.90;;;;;;5014479;28;20419;-74
2022/03/04 08:24:31;;;;;;;32.53;16.30;;;1.20;99.90;;;;;;5015009;28;20080;-74
2022/03/04 08:26:57;;;;;;;30.93;16.47;;;1.20;99.90;;;;;;5014774;28;20457;-73
2022/03/04 08:29:23;;;;;;;28.10;15.83;;;1.30;99.90;;;;;;5014358;28;20113;-74
2022/03/04 08:31:49;;;;;;;31.30;14.90;;;1.50;99.90;;;;;;5014417;28;20026;-74
2022/03/04 08:34:15;;;;;;;30.23;16.20;;;1.50;99.90;;;;;;4996535;28;20041;-74
2022/03/04 08:36:40;;;;;;;31.73;16.93;;;1.70;99.90;;;;;;5014617;28;20056;-74
2022/03/04 08:39:06;;;;;;;27.07;15.57;;;1.70;99.90;;;;;;5014204;28;20052;-74
2022/03/04 08:41:35;;;;;;;30.10;16.20;;;2.00;99.90;;;;;;4997074;28;20037;-74
2022/03/04 08:44:01;;;;;;;28.07;15.70;;;2.00;99.90;;;;;;5014125;28;20499;-74
2022/03/04 08:46:27;;;;;;;29.80;15.70;;;1.90;99.90;;;;;;4996561;28;20030;-73
2022/03/04 08:48:53;;;;;;;31.60;16.67;;;2.40;99.90;;;;;;5014272;28;20029;-74
2022/03/04 08:51:24;;;;;;;33.57;17.60;;;2.40;99.90;;;;;;5013971;28;20041;-74
2022/03/04 08:53:51;;;;;;;31.63;16.57;;;2.50;99.90;;;;;;4996323;28;20472;-74
2022/03/04 08:56:16;;;;;;;31.37;16.50;;;2.80;99.90;;;;;;5014141;28;20030;-74
2022/03/04 08:58:42;;;;;;;31.43;17.00;;;2.80;99.90;;;;;;5013805;28;20034;-74
2022/03/04 09:01:07;;;;;;;31.23;17.27;;;3.10;99.90;;;;;;5014068;28;20037;-74
2022/03/04 09:03:33;;;;;;;32.63;16.73;;;3.30;99.90;;;;;;5014193;28;20101;-74
2022/03/04 09:05:59;;;;;;;30.93;16.23;;;3.50;99.90;;;;;;5013813;28;20022;-74
2022/03/04 09:08:24;;;;;;;35.67;18.23;;;3.50;99.90;;;;;;4996170;28;20095;-74
2022/03/04 09:10:50;;;;;;;32.87;16.70;;;3.50;99.90;;;;;;5013836;28;20434;-74
2022/03/04 09:13:16;;;;;;;31.83;16.70;;;3.80;99.90;;;;;;4996712;28;20057;-74
2022/03/04 09:15:41;;;;;;;30.17;17.23;;;4.20;99.90;;;;;;4996452;28;20100;-75
2022/03/04 09:18:07;;;;;;;34.03;18.20;;;4.00;99.90;;;;;;4996235;28;20466;-74
2022/03/04 09:20:33;;;;;;;29.73;17.17;;;4.10;99.90;;;;;;4996592;28;20117;-74
2022/03/04 09:22:58;;;;;;;31.93;17.00;;;4.00;98.80;;;;;;5013630;28;20030;-74
2022/03/04 09:25:26;;;;;;;30.70;17.00;;;4.40;97.90;;;;;;5013634;28;20030;-74
2022/03/04 09:27:53;;;;;;;29.70;17.97;;;4.70;97.40;;;;;;5013740;28;20098;-74
2022/03/04 09:30:18;;;;;;;31.23;17.43;;;4.80;97.00;;;;;;5013243;28;20048;-74
2022/03/04 09:32:44;;;;;;;28.70;17.07;;;5.00;95.50;;;;;;5013621;28;20026;-74
2022/03/04 09:35:10;;;;;;;30.30;17.60;;;5.10;94.90;;;;;;5013515;28;20037;-74
2022/03/04 09:37:36;;;;;;;30.73;17.30;;;5.00;94.60;;;;;;5013233;28;20429;-74
2022/03/04 09:40:03;;;;;;;29.03;17.13;;;5.20;94.30;;;;;;5013051;28;20061;-75
2022/03/04 09:42:31;;;;;;;36.03;19.00;;;5.40;94.40;;;;;;4995954;28;20117;-74
2022/03/04 09:44:56;;;;;;;32.43;18.80;;;5.50;93.20;;;;;;4992660;28;20049;-79
2022/03/04 09:47:23;;;;;;;28.90;17.20;;;5.50;92.80;;;;;;5000653;28;20135;-79
2022/03/04 09:49:50;;;;;;;31.73;18.90;;;5.40;93.10;;;;;;5002731;28;20447;-81
2022/03/04 09:52:17;;;;;;;31.00;17.27;;;5.60;92.60;;;;;;4977604;28;20038;-79
2022/03/04 09:54:46;;;;;;;28.13;16.27;;;5.70;91.60;;;;;;4997268;28;20116;-79
2022/03/04 09:57:11;;;;;;;29.90;16.73;;;5.70;91.50;;;;;;4995950;28;20116;-81
2022/03/04 09:59:37;;;;;;;30.00;17.07;;;5.80;91.00;;;;;;5011724;28;20033;-74
2022/03/04 10:02:03;;;;;;;29.27;16.63;;;5.80;90.90;;;;;;5000470;28;20026;-74
2022/03/04 10:04:29;;;;;;;30.50;17.33;;;5.80;90.80;;;;;;4998827;28;20057;-74
2022/03/04 10:06:55;;;;;;;30.00;18.93;;;5.90;90.90;;;;;;5012993;28;20250;-74
2022/03/04 10:09:47;;;;;;;31.70;16.53;;;6.40;88.90;;;;;;4981531;28;20096;-81
2022/03/04 10:12:14;;;;;;;31.90;17.33;;;6.80;85.30;;;;;;4977857;28;20037;-81
2022/03/04 10:15:02;;;;;;;28.80;17.87;;;6.90;85.60;;;;;;4973544;28;20058;-80
2022/03/04 10:17:28;;;;;;;27.37;16.73;;;6.70;83.90;;;;;;4986861;28;20121;-81
2022/03/04 10:19:56;;;;;;;27.20;17.57;;;6.80;86.10;;;;;;5001610;28;20018;-81
2022/03/04 10:22:22;;;;;;;28.97;16.90;;;7.30;82.00;;;;;;4981075;28;20100;-80
2022/03/04 10:24:48;;;;;;;26.37;16.83;;;7.50;80.40;;;;;;4996603;28;20037;-80
2022/03/04 10:27:16;;;;;;;29.60;17.23;;;7.90;80.20;;;;;;5012597;28;20022;-74
2022/03/04 10:29:44;;;;;;;26.70;16.47;;;8.00;79.80;;;;;;4992172;28;20796;-80
2022/03/04 10:32:19;;;;;;;28.10;16.83;;;7.90;79.70;;;;;;4988791;28;20050;-80
2022/03/04 10:35:08;;;;;;;30.02;18.35;;;7.90;77.90;;;;;;4994086;28;20042;-81
2022/03/04 10:37:51;;;;;;;29.43;17.30;;;7.90;76.80;;;;;;4980119;28;20042;-80
2022/03/04 10:40:19;;;;;;;28.67;16.93;;;8.50;76.70;;;;;;4987361;28;20077;-80
2022/03/04 10:42:52;;;;;;;25.00;16.05;;;8.50;75.60;;;;;;4987250;28;20084;-80
2022/03/04 10:45:32;;;;;;;27.40;16.10;;;8.30;73.60;;;;;;4979817;28;20503;-80
2022/03/04 10:48:03;;;;;;;24.80;16.50;;;8.40;74.50;;;;;;5006602;28;20060;-80
2022/03/04 10:50:38;;;;;;;26.10;15.60;;;8.50;74.70;;;;;;4991793;28;20398;-84
2022/03/04 10:53:11;;;;;;;35.40;20.92;;;8.90;72.10;;;;;;5007499;28;20033;-80
2022/03/04 10:55:42;;;;;;;36.60;23.40;;;8.90;72.00;;;;;;5007162;28;20057;-80
2022/03/04 10:58:38;;;;;;;32.13;20.83;;;9.10;70.80;;;;;;5007456;28;20057;-80
2022/03/04 11:01:06;;;;;;;55.67;35.38;;;8.90;71.00;;;;;;4991284;28;20034;-80
2022/03/04 11:03:33;;;;;;;32.87;20.27;;;9.00;71.20;;;;;;5008048;28;20569;-79
2022/03/04 11:06:04;;;;;;;30.57;19.83;;;8.70;70.50;;;;;;4990478;28;20472;-80
2022/03/04 11:08:30;;;;;;;32.20;18.00;;;8.90;68.80;;;;;;5009362;28;20038;-80
2022/03/04 11:10:57;;;;;;;28.33;17.83;;;9.00;67.60;;;;;;5012413;28;20038;-80
2022/03/04 11:13:24;;;;;;;26.63;16.43;;;9.00;68.40;;;;;;4994989;28;20046;-80
2022/03/04 11:15:52;;;;;;;26.03;16.00;;;9.00;70.20;;;;;;4999339;28;20030;-80
2022/03/04 11:18:19;;;;;;;26.27;16.23;;;8.80;69.80;;;;;;5014278;28;20030;-80
2022/03/04 11:20:47;;;;;;;24.07;15.47;;;9.00;67.60;;;;;;4996766;28;20034;-80
2022/03/04 11:23:18;;;;;;;24.30;14.97;;;9.20;66.90;;;;;;4995994;28;20471;-79
2022/03/04 11:25:53;;;;;;;25.10;15.53;;;9.00;65.70;;;;;;5013343;28;20450;-78
2022/03/04 11:28:19;;;;;;;26.50;16.52;;;8.70;65.90;;;;;;5013749;28;20048;-79
2022/03/04 11:30:46;;;;;;;25.40;15.77;;;8.70;67.00;;;;;;5010785;28;20439;-73
2022/03/04 11:33:19;;;;;;;25.63;15.57;;;8.90;66.40;;;;;;4994907;28;20058;-74
2022/03/04 11:35:54;;;;;;;25.00;15.60;;;8.90;66.40;;;;;;4996179;28;20026;-74
2022/03/04 11:38:46;;;;;;;21.90;13.70;;;8.70;64.50;;;;;;4995924;28;20026;-74
2022/03/04 11:41:17;;;;;;;21.05;12.55;;;9.10;64.60;;;;;;5006073;28;20049;-75
2022/03/04 11:43:48;;;;;;;23.97;13.97;;;9.30;61.80;;;;;;5010204;28;20518;-75
2022/03/04 11:46:24;;;;;;;25.08;15.35;;;9.60;62.00;;;;;;4998069;28;20096;-74
2022/03/04 11:49:21;;;;;;;29.45;17.67;;;9.70;61.50;;;;;;5015104;28;20034;-74
2022/03/04 11:52:11;;;;;;;26.40;16.38;;;9.60;64.60;;;;;;5015091;28;20030;-73
2022/03/04 11:54:45;;;;;;;28.85;16.95;;;9.70;63.50;;;;;;4998800;28;20049;-78
2022/03/04 11:57:40;;;;;;;27.30;16.38;;;9.30;63.90;;;;;;4996116;28;20136;-79
2022/03/04 12:00:12;;;;;;;26.20;15.43;;;9.50;63.80;;;;;;4994515;28;20032;-79
2022/03/04 12:02:38;;;;;;;25.30;15.75;;;9.30;63.80;;;;;;4992335;28;20029;-79
2022/03/04 12:07:43;;;;;;;25.25;15.90;;;9.40;62.80;;;;;;5012218;28;20356;-79
2022/03/04 12:10:12;;;;;;;27.45;17.52;;;9.20;64.50;;;;;;5011341;28;20026;-79
2022/03/04 12:12:38;;;;;;;29.27;17.58;;;9.70;63.40;;;;;;5011641;28;20026;-79
2022/03/04 12:15:16;;;;;;;26.10;17.95;;;9.80;63.60;;;;;;5011938;28;20026;-78
2022/03/04 12:17:52;;;;;;;26.77;17.02;;;9.40;64.60;;;;;;5010617;28;20041;-78
2022/03/04 12:20:40;;;;;;;28.37;18.17;;;9.40;64.70;;;;;;5011364;28;20128;-78
2022/03/04 12:23:15;;;;;;;38.15;25.00;;;9.60;64.00;;;;;;5012893;28;20042;-74
2022/03/04 12:25:56;;;;;;;34.97;23.17;;;9.60;62.50;;;;;;5014382;28;20093;-74
2022/03/04 12:29:10;;;;;;;24.40;15.47;;;9.30;63.30;;;;;;4997367;28;20048;-74
2022/03/04 12:31:41;;;;;;;24.63;15.97;;;9.40;61.90;;;;;;4934665;29;20087;-73
2022/03/04 12:34:27;;;;;;;27.37;17.03;;;9.40;64.10;;;;;;4930363;29;20038;-71